Time;durP1;ratioP1;P1;durP2;ratioP2;P2;SDS_P1;SDS_P2;PMS_P1;PMS_P2;Temp;Humidity;BMP_temperature;BMP_pressure;BME280_temperature;BME280_humidity;BME280_pressure;Samples;Min_cycle;Max_cycle;Signal;HPM_P1;HPM_P2
2020/12/30 00:04:35;;;;;;;137.40;58.33;;;;;;;1.88;78.56;97182.04;490689;1146;104873;-41
2020/12/30 00:14:39;;;;;;;130.85;58.20;;;;;;;1.79;78.51;97202.34;490663;1146;104515;-42
2020/12/30 00:24:42;;;;;;;114.60;50.75;;;;;;;1.84;78.57;97200.70;490797;1146;105660;-40
2020/12/30 00:34:45;;;;;;;135.43;56.80;;;;;;;1.92;78.67;97207.50;490721;1147;104544;-41
2020/12/30 00:44:48;;;;;;;119.10;54.25;;;;;;;1.92;79.08;97207.50;490548;1146;104509;-41
2020/12/30 00:54:52;;;;;;;150.40;63.13;;;;;;;1.87;79.11;97207.30;490694;1147;104434;-44
2020/12/30 01:04:56;;;;;;;105.07;50.43;;;;;;;1.98;79.16;97208.47;490950;1146;104594;-41
2020/12/30 01:15:00;;;;;;;98.30;48.90;;;;;;;2.14;79.08;97194.94;490699;1146;104512;-41
2020/12/30 01:25:04;;;;;;;85.30;40.03;;;;;;;2.14;79.41;97193.12;490885;1146;104518;-41
2020/12/30 01:35:21;;;;;;;92.57;44.33;;;;;;;2.33;79.71;97198.39;490673;1147;104524;-41
2020/12/30 01:45:25;;;;;;;124.37;54.00;;;;;;;2.34;79.99;97200.79;490446;1147;104857;-41
2020/12/30 01:55:28;;;;;;;88.63;42.03;;;;;;;2.47;79.44;97202.52;491275;1147;104518;-41
2020/12/30 02:05:31;;;;;;;76.20;40.43;;;;;;;2.62;79.68;97210.03;490510;1145;104822;-43
2020/12/30 02:15:34;;;;;;;72.90;34.67;;;;;;;2.76;79.84;97201.86;490511;1147;104452;-41
2020/12/30 02:25:38;;;;;;;76.75;34.85;;;;;;;2.90;80.05;97199.14;490688;1147;104515;-40
2020/12/30 02:35:41;;;;;;;71.20;33.10;;;;;;;2.98;80.12;97206.68;490710;1146;104513;-40
2020/12/30 02:45:45;;;;;;;56.90;28.55;;;;;;;3.03;80.25;97209.44;490541;1146;104935;-41
2020/12/30 02:55:50;;;;;;;58.37;29.30;;;;;;;3.05;80.48;97213.42;492044;1106;104511;-41
2020/12/30 03:05:55;;;;;;;58.67;29.73;;;;;;;3.08;80.66;97207.80;489898;1148;104463;-41
2020/12/30 03:26:19;;;;;;;56.33;28.70;;;;;;;3.27;81.10;97194.72;490426;1147;104521;-41
2020/12/30 03:36:25;;;;;;;46.43;24.43;;;;;;;3.36;80.72;97199.45;490082;1147;104598;-42
2020/12/30 03:46:30;;;;;;;49.87;24.57;;;;;;;3.44;81.29;97184.48;489980;1147;104526;-41
2020/12/30 03:56:34;;;;;;;42.70;21.85;;;;;;;3.48;81.22;97185.64;489758;1148;104450;-44
2020/12/30 04:06:39;;;;;;;38.67;20.57;;;;;;;3.59;81.53;97188.33;490620;1147;104521;-41
2020/12/30 04:16:44;;;;;;;40.67;21.83;;;;;;;3.67;81.17;97188.02;490621;1147;104527;-41
2020/12/30 04:26:49;;;;;;;37.47;20.97;;;;;;;3.69;81.33;97203.48;491090;1147;104527;-41
2020/12/30 04:36:54;;;;;;;45.83;21.57;;;;;;;3.64;81.38;97201.53;490343;1146;104527;-40
2020/12/30 04:46:59;;;;;;;39.10;22.50;;;;;;;3.65;81.84;97199.71;490692;1147;104867;-42
2020/12/30 04:57:05;;;;;;;41.93;21.60;;;;;;;3.70;81.55;97211.09;490831;1147;104511;-42
2020/12/30 05:07:12;;;;;;;39.73;22.67;;;;;;;3.72;82.04;97223.15;490601;1147;104963;-43
2020/12/30 05:17:18;;;;;;;42.43;23.57;;;;;;;3.76;82.01;97219.07;490832;1147;104740;-41
2020/12/30 05:27:26;;;;;;;36.13;22.07;;;;;;;3.82;82.32;97231.28;490493;1147;105020;-43
2020/12/30 05:37:30;;;;;;;38.73;23.33;;;;;;;3.90;82.33;97251.89;491142;1147;104780;-42
2020/12/30 05:47:35;;;;;;;34.30;23.77;;;;;;;3.95;82.33;97255.44;490553;1147;104473;-41
2020/12/30 05:57:40;;;;;;;37.25;22.30;;;;;;;3.95;82.40;97260.66;490790;1147;104876;-41
2020/12/30 06:07:47;;;;;;;37.17;22.80;;;;;;;3.97;82.73;97263.85;490881;1147;104515;-40
2020/12/30 06:17:57;;;;;;;44.95;28.70;;;;;;;4.03;82.87;97270.04;490786;1147;104537;-41
2020/12/30 06:28:02;;;;;;;38.40;23.50;;;;;;;4.08;82.78;97275.41;490579;1147;104511;-43
2020/12/30 06:38:26;;;;;;;41.53;23.03;;;;;;;4.21;82.91;97272.59;490839;1147;104906;-42
2020/12/30 06:48:51;;;;;;;34.47;22.13;;;;;;;4.23;82.69;97262.70;490596;1147;104465;-43
2020/12/30 06:58:56;;;;;;;50.73;33.53;;;;;;;4.41;82.87;97274.94;490532;1147;104524;-41
2020/12/30 07:09:00;;;;;;;43.25;27.15;;;;;;;4.48;82.81;97272.22;490966;1147;105633;-41
2020/12/30 07:29:29;;;;;;;43.93;27.93;;;;;;;4.49;83.07;97268.58;490569;1147;104453;-43
2020/12/30 07:39:38;;;;;;;54.97;34.97;;;;;;;4.46;82.80;97272.45;490462;1147;104569;-42
2020/12/30 07:49:43;;;;;;;78.83;50.23;;;;;;;4.52;82.98;97276.02;490561;1147;104883;-43
2020/12/30 07:59:50;;;;;;;59.90;35.57;;;;;;;4.51;83.00;97277.03;490805;1147;105615;-44
2020/12/30 08:09:54;;;;;;;124.67;75.40;;;;;;;4.42;82.68;97266.07;491212;1147;104540;-41
2020/12/30 08:19:59;;;;;;;116.25;64.35;;;;;;;4.43;82.74;97277.33;490751;1147;104905;-42
2020/12/30 08:30:04;;;;;;;97.17;60.23;;;;;;;4.48;83.01;97272.22;490613;1147;104814;-43
2020/12/30 08:40:15;;;;;;;92.43;54.07;;;;;;;4.56;83.48;97282.39;490938;1147;104978;-41
2020/12/30 08:50:20;;;;;;;73.73;42.80;;;;;;;4.60;83.67;97286.95;490763;1147;104523;-42
2020/12/30 09:00:27;;;;;;;72.05;41.60;;;;;;;4.69;83.02;97279.56;490762;1146;104777;-42
2020/12/30 09:10:34;;;;;;;32.40;20.30;;;;;;;4.84;83.21;97273.91;490697;1147;104477;-41
2020/12/30 09:20:39;;;;;;;28.03;14.70;;;;;;;4.86;83.35;97267.41;490857;1147;104540;-41
2020/12/30 09:30:45;;;;;;;68.20;33.17;;;;;;;4.93;83.19;97273.33;490951;1147;104567;-41
2020/12/30 09:40:52;;;;;;;43.17;28.33;;;;;;;4.90;83.34;97276.41;490676;1147;104523;-42
2020/12/30 09:50:57;;;;;;;26.70;17.63;;;;;;;4.99;83.27;97273.48;490953;1147;104494;-42
2020/12/30 10:01:02;;;;;;;32.85;19.70;;;;;;;5.04;83.48;97263.11;490739;1147;104917;-44
2020/12/30 10:11:07;;;;;;;31.90;19.97;;;;;;;5.11;83.63;97258.55;490841;1147;105058;-41
2020/12/30 10:21:12;;;;;;;33.65;22.85;;;;;;;5.18;83.58;97259.22;490469;1147;104563;-41
2020/12/30 10:31:18;;;;;;;31.40;21.20;;;;;;;5.18;83.72;97257.39;490539;1147;104553;-42
2020/12/30 10:41:23;;;;;;;23.53;15.03;;;;;;;5.22;83.48;97249.90;490545;1147;104515;-40
2020/12/30 10:51:27;;;;;;;26.67;16.77;;;;;;;5.14;83.00;97244.98;490393;1147;104627;-44
2020/12/30 11:01:32;;;;;;;44.27;25.20;;;;;;;5.04;83.58;97232.47;490683;1147;104470;-41
2020/12/30 11:11:37;;;;;;;38.87;23.10;;;;;;;4.93;83.67;97225.39;490613;1147;104508;-43
2020/12/30 11:21:49;;;;;;;23.95;17.20;;;;;;;4.88;83.52;97223.45;490557;1147;104864;-42
2020/12/30 11:31:53;;;;;;;26.45;15.90;;;;;;;4.98;83.90;97222.91;491012;1146;104454;-42
2020/12/30 11:41:59;;;;;;;24.43;14.97;;;;;;;5.14;83.71;97230.06;490718;1147;104559;-44
2020/12/30 11:52:03;;;;;;;40.97;20.30;;;;;;;5.07;83.17;97231.21;490458;1147;104511;-42
2020/12/30 12:02:09;;;;;;;36.80;19.17;;;;;;;5.02;83.61;97245.00;490625;1147;105026;-43
2020/12/30 12:12:14;;;;;;;65.03;30.37;;;;;;;4.88;83.91;97249.65;490567;1147;104454;-41
2020/12/30 12:22:19;;;;;;;46.20;23.93;;;;;;;4.77;83.62;97253.06;490923;1147;104551;-43
2020/12/30 12:32:26;;;;;;;48.57;25.53;;;;;;;4.67;83.90;97268.52;490722;1147;104825;-41
2020/12/30 12:42:31;;;;;;;25.30;14.70;;;;;;;4.66;83.62;97266.13;491242;1147;104518;-42
2020/12/30 12:52:36;;;;;;;23.40;14.40;;;;;;;4.78;83.42;97267.75;490423;1147;104564;-41
2020/12/30 13:02:41;;;;;;;36.07;19.33;;;;;;;4.93;84.00;97262.86;490599;1147;104457;-41
2020/12/30 13:12:47;;;;;;;30.50;17.97;;;;;;;5.10;83.56;97260.37;491185;1147;104435;-43
2020/12/30 13:22:52;;;;;;;65.20;31.90;;;;;;;5.06;83.65;97263.67;490927;1147;104517;-41
2020/12/30 13:32:57;;;;;;;50.60;27.07;;;;;;;4.96;83.70;97279.14;490522;1146;104528;-42
2020/12/30 13:43:15;;;;;;;78.03;38.13;;;;;;;4.95;83.50;97288.82;490583;1147;104855;-41
2020/12/30 13:53:20;;;;;;;40.23;21.83;;;;;;;4.98;83.91;97293.63;490510;1147;104511;-42
2020/12/30 14:03:25;;;;;;;35.95;20.65;;;;;;;4.92;83.60;97287.45;490321;1147;104526;-42
2020/12/30 14:13:30;;;;;;;68.93;38.60;;;;;;;4.95;83.87;97296.68;490359;1146;104868;-41
2020/12/30 14:23:35;;;;;;;53.13;32.37;;;;;;;4.92;83.74;97297.93;490764;1147;104552;-40
2020/12/30 14:33:40;;;;;;;87.40;46.13;;;;;;;4.75;83.91;97291.77;490876;1147;104585;-41
2020/12/30 14:43:46;;;;;;;100.95;57.80;;;;;;;4.53;83.96;97293.31;490995;1147;104547;-42
2020/12/30 14:53:51;;;;;;;64.20;31.50;;;;;;;4.45;83.32;97296.23;490314;1147;104521;-41
2020/12/30 15:03:56;;;;;;;58.60;35.53;;;;;;;4.39;83.82;97304.98;490362;1147;104506;-42
2020/12/30 15:14:01;;;;;;;57.93;33.77;;;;;;;4.24;83.20;97328.91;490517;1147;104981;-42
2020/12/30 15:24:06;;;;;;;57.93;33.60;;;;;;;4.42;84.07;97338.55;490828;1147;104565;-40
2020/12/30 15:34:12;;;;;;;58.33;32.20;;;;;;;4.42;83.55;97354.26;490940;1147;104822;-41
2020/12/30 15:44:17;;;;;;;113.73;58.10;;;;;;;4.42;84.23;97356.87;490598;1147;104569;-41
2020/12/30 15:54:22;;;;;;;134.10;65.87;;;;;;;4.14;84.01;97362.66;490922;1147;104524;-44
2020/12/30 16:04:27;;;;;;;88.73;49.10;;;;;;;3.98;83.68;97377.11;490765;1147;104521;-41
2020/12/30 16:24:51;;;;;;;137.03;77.05;;;;;;;3.92;83.91;97399.71;490706;1147;104873;-43
2020/12/30 16:34:58;;;;;;;115.93;68.83;;;;;;;3.99;84.15;97412.70;490654;1147;104863;-41
2020/12/30 16:45:04;;;;;;;104.70;61.43;;;;;;;4.09;84.17;97420.07;490810;1147;104841;-45
2020/12/30 16:55:11;;;;;;;98.77;55.33;;;;;;;4.09;84.18;97418.25;490653;1147;104518;-43
2020/12/30 17:05:16;;;;;;;137.40;70.80;;;;;;;4.03;84.21;97426.17;490484;1147;104564;-41
2020/12/30 17:15:20;;;;;;;152.50;69.60;;;;;;;3.81;84.08;97431.02;490444;1147;104537;-42
2020/12/30 17:25:25;;;;;;;75.40;42.87;;;;;;;3.79;83.86;97454.77;490607;1147;104585;-42
2020/12/30 17:35:31;;;;;;;74.80;42.60;;;;;;;3.79;84.03;97454.77;490704;1147;104970;-42
2020/12/30 17:45:38;;;;;;;67.50;40.67;;;;;;;3.74;84.16;97465.05;490395;1147;104564;-41
2020/12/30 17:55:43;;;;;;;84.27;49.33;;;;;;;3.77;84.29;97461.20;490558;1147;104918;-41
2020/12/30 18:05:49;;;;;;;84.95;46.45;;;;;;;3.82;84.33;97470.02;490904;1147;105682;-41
2020/12/30 18:15:58;;;;;;;99.22;53.55;;;;;;;3.59;84.16;97475.04;490593;1147;104516;-43
2020/12/30 18:26:03;;;;;;;141.80;63.05;;;;;;;3.04;83.45;97480.01;490359;1147;104832;-43
2020/12/30 18:36:08;;;;;;;110.85;53.20;;;;;;;2.75;83.81;97483.97;491195;1147;104950;-43
2020/12/30 18:46:13;;;;;;;106.30;53.70;;;;;;;2.51;84.04;97506.34;490982;1147;104630;-42
2020/12/30 18:56:22;;;;;;;136.73;67.67;;;;;;;2.45;84.05;97512.39;490749;1147;104546;-43
2020/12/30 19:06:28;;;;;;;157.50;65.57;;;;;;;2.53;84.50;97529.63;491104;1147;104773;-42
2020/12/30 19:16:37;;;;;;;110.50;50.77;;;;;;;2.63;84.71;97522.98;490803;1147;104468;-42
2020/12/30 19:26:46;;;;;;;151.37;65.43;;;;;;;2.45;84.12;97528.84;491144;1147;104524;-43
2020/12/30 19:36:51;;;;;;;138.47;58.57;;;;;;;2.36;84.60;97544.91;490871;1147;105721;-42
2020/12/30 19:46:56;;;;;;;105.63;49.80;;;;;;;2.36;84.62;97553.53;490542;1146;104477;-42
2020/12/30 19:57:01;;;;;;;94.27;46.10;;;;;;;2.42;84.59;97544.91;490575;1147;104509;-41
2020/12/30 20:07:05;;;;;;;96.57;44.83;;;;;;;2.33;84.47;97560.97;490809;1147;104971;-45
2020/12/30 20:17:10;;;;;;;87.50;44.10;;;;;;;2.40;84.36;97572.22;490984;1146;104543;-44
2020/12/30 20:27:31;;;;;;;128.43;62.30;;;;;;;2.49;85.21;97573.59;490798;1147;104470;-40
2020/12/30 20:37:36;;;;;;;156.63;63.80;;;;;;;2.37;84.58;97589.08;490930;1147;105705;-44
2020/12/30 20:47:41;;;;;;;118.25;53.90;;;;;;;2.22;84.94;97595.50;490527;1147;104521;-43
2020/12/30 20:57:46;;;;;;;89.93;44.37;;;;;;;2.29;84.75;97610.13;490688;1147;104939;-42
2020/12/30 21:07:51;;;;;;;77.33;38.17;;;;;;;2.28;84.67;97620.77;490524;1147;104505;-41
2020/12/30 21:17:56;;;;;;;80.07;40.37;;;;;;;2.26;84.61;97641.04;490655;1145;104544;-40
2020/12/30 21:28:01;;;;;;;87.97;38.87;;;;;;;2.13;84.61;97644.46;490572;1147;104512;-43
2020/12/30 21:38:06;;;;;;;133.73;51.77;;;;;;;2.17;84.59;97652.69;490662;1147;104524;-41
2020/12/30 21:48:11;;;;;;;80.07;36.93;;;;;;;2.17;84.86;97658.70;490358;1147;104516;-41
2020/12/30 21:58:16;;;;;;;76.25;33.60;;;;;;;2.20;85.26;97660.91;490796;1147;104521;-42
2020/12/30 22:08:21;;;;;;;74.00;34.03;;;;;;;2.13;85.13;97655.70;490383;1147;104511;-43
2020/12/30 22:18:27;;;;;;;104.10;42.87;;;;;;;1.93;84.47;97654.86;491007;1147;104563;-45
2020/12/30 22:28:32;;;;;;;102.50;45.10;;;;;;;1.79;84.61;97664.45;490494;1147;104520;-42
2020/12/30 22:38:37;;;;;;;73.97;35.03;;;;;;;1.74;84.59;97668.66;490491;1147;104888;-42
2020/12/30 22:48:43;;;;;;;78.95;37.50;;;;;;;1.41;84.26;97669.33;490512;1147;104547;-43
2020/12/30 22:58:49;;;;;;;89.53;38.00;;;;;;;1.11;84.22;97674.02;490538;1147;104865;-41
2020/12/30 23:08:54;;;;;;;94.25;41.10;;;;;;;0.83;84.61;97678.47;490678;1147;104524;-43
2020/12/30 23:18:59;;;;;;;77.35;36.55;;;;;;;0.50;84.25;97673.85;490398;1147;104520;-41
2020/12/30 23:29:04;;;;;;;113.25;52.75;;;;;;;0.34;84.38;97673.31;491193;1147;104436;-44
2020/12/30 23:39:09;;;;;;;143.75;57.70;;;;;;;0.19;84.85;97673.38;490792;1147;104507;-41
2020/12/30 23:49:14;;;;;;;110.55;48.95;;;;;;;0.13;84.16;97674.13;490567;1147;104586;-43
2020/12/30 23:59:19;;;;;;;105.97;50.30;;;;;;;0.17;84.63;97681.36;490390;1147;104849;-41
